createdAt,value
2023-05-14T00:01:59.604Z,15.78
2023-05-14T00:07:17.436Z,15.89
2023-05-14T00:09:44.354Z,16.19
2023-05-14T00:12:11.122Z,16.07
2023-05-14T00:14:42.284Z,16.22
2023-05-14T00:17:09.136Z,16.66
2023-05-14T00:19:36.525Z,17.01
2023-05-14T00:22:03.830Z,16.73
2023-05-14T00:24:30.651Z,16.88
2023-05-14T00:26:57.560Z,16.84
2023-05-14T00:29:26.234Z,16.38
2023-05-14T00:31:52.851Z,16.19
2023-05-14T00:34:19.570Z,16.35
2023-05-14T00:36:46.148Z,16.01
2023-05-14T00:39:14.379Z,16.52
2023-05-14T00:41:40.962Z,16.50
2023-05-14T00:44:07.837Z,16.32
2023-05-14T00:46:35.305Z,16.61
2023-05-14T00:49:01.913Z,15.98
2023-05-14T00:51:28.731Z,16.00
2023-05-14T00:53:55.202Z,15.93
2023-05-14T00:56:21.707Z,15.88
2023-05-14T00:58:48.221Z,15.91
2023-05-14T01:01:14.729Z,15.86
2023-05-14T01:03:41.324Z,15.64
2023-05-14T01:06:08.284Z,16.09
2023-05-14T01:08:35.669Z,16.19
2023-05-14T01:11:02.404Z,16.57
2023-05-14T01:13:29.276Z,16.94
2023-05-14T01:15:56.740Z,17.12
2023-05-14T01:18:23.309Z,17.11
2023-05-14T01:20:49.876Z,16.95
2023-05-14T01:23:17.696Z,17.05
2023-05-14T01:25:44.752Z,16.94
2023-05-14T01:28:11.894Z,16.57
2023-05-14T01:30:38.674Z,16.10
2023-05-14T01:33:05.212Z,16.51
2023-05-14T01:35:32.193Z,16.39
2023-05-14T01:37:58.768Z,16.60
2023-05-14T01:40:26.288Z,16.54
2023-05-14T01:42:52.957Z,16.77
2023-05-14T01:45:19.782Z,16.61
2023-05-14T01:47:46.365Z,15.89
2023-05-14T01:53:00.975Z,15.09
2023-05-14T01:55:27.834Z,15.16
2023-05-14T01:57:54.645Z,15.08
2023-05-14T02:00:21.414Z,14.91
2023-05-14T02:02:48.285Z,14.88
2023-05-14T02:05:15.656Z,14.78
2023-05-14T02:07:42.559Z,14.71
2023-05-14T02:10:09.223Z,15.02
2023-05-14T02:12:35.827Z,15.18
2023-05-14T02:15:02.394Z,15.35
2023-05-14T02:17:29.152Z,15.38
2023-05-14T02:19:57.778Z,15.60
2023-05-14T02:22:24.275Z,15.60
2023-05-14T02:24:51.720Z,15.18
2023-05-14T02:27:18.292Z,14.63
2023-05-14T02:29:45.121Z,14.68
2023-05-14T02:32:11.933Z,14.38
2023-05-14T02:34:38.805Z,14.59
2023-05-14T02:37:05.328Z,15.02
2023-05-14T02:39:34.304Z,15.25
2023-05-14T02:42:00.802Z,15.67
2023-05-14T02:44:27.384Z,15.21
2023-05-14T02:46:54.227Z,15.04
2023-05-14T02:49:20.794Z,14.22
2023-05-14T02:51:47.372Z,13.87
2023-05-14T02:54:14.131Z,13.58
2023-05-14T02:56:40.716Z,13.71
2023-05-14T02:59:07.293Z,14.24
2023-05-14T03:01:34.605Z,14.17
2023-05-14T03:04:03.941Z,13.76
2023-05-14T03:06:30.477Z,13.60
2023-05-14T03:08:57.272Z,13.28
2023-05-14T03:11:24.598Z,13.00
2023-05-14T03:13:53.228Z,13.20
2023-05-14T03:16:20.082Z,13.03
2023-05-14T03:18:46.709Z,13.32
2023-05-14T03:21:16.461Z,13.09
2023-05-14T03:23:43.259Z,13.01
2023-05-14T03:26:10.111Z,13.09
2023-05-14T03:31:26.906Z,13.62
2023-05-14T03:33:53.520Z,13.35
2023-05-14T03:36:20.263Z,13.38
2023-05-14T03:38:46.814Z,14.06
2023-05-14T03:41:13.510Z,14.53
2023-05-14T03:43:47.300Z,14.12
2023-05-14T03:46:13.933Z,13.52
2023-05-14T03:48:40.544Z,13.01
2023-05-14T03:51:07.295Z,13.51
2023-05-14T03:53:34.072Z,13.53
2023-05-14T03:56:00.935Z,13.78
2023-05-14T03:58:27.532Z,13.59
2023-05-14T04:00:54.043Z,14.34
2023-05-14T04:03:21.014Z,15.37
2023-05-14T04:05:47.898Z,15.60
2023-05-14T04:08:14.746Z,15.49
2023-05-14T04:10:41.281Z,15.94
2023-05-14T04:13:08.140Z,16.24
2023-05-14T04:15:35.523Z,16.29
2023-05-14T04:18:02.071Z,15.52
2023-05-14T04:20:28.881Z,15.63
2023-05-14T04:22:55.672Z,14.71
2023-05-14T04:25:22.280Z,15.18
2023-05-14T04:27:48.814Z,14.89
2023-05-14T04:30:16.194Z,14.50
2023-05-14T04:32:43.064Z,14.69
2023-05-14T04:35:09.610Z,13.79
2023-05-14T04:37:36.439Z,13.48
2023-05-14T04:40:04.707Z,13.35
2023-05-14T04:42:31.859Z,13.05
2023-05-14T04:44:58.606Z,12.90
2023-05-14T04:47:25.210Z,12.95
2023-05-14T04:49:52.071Z,12.54
2023-05-14T04:52:18.952Z,12.64
2023-05-14T04:54:45.872Z,12.78
2023-05-14T04:57:12.640Z,12.53
2023-05-14T04:59:39.499Z,12.88
2023-05-14T05:02:06.097Z,12.95
2023-05-14T05:04:32.691Z,12.97
2023-05-14T05:06:59.518Z,13.03
2023-05-14T05:09:26.020Z,12.84
2023-05-14T05:11:52.940Z,13.33
2023-05-14T05:14:19.874Z,13.18
2023-05-14T05:16:46.357Z,13.84
2023-05-14T05:19:15.392Z,13.85
2023-05-14T05:21:43.056Z,13.28
2023-05-14T05:24:09.975Z,13.73
2023-05-14T05:26:36.773Z,13.62
2023-05-14T05:29:03.864Z,13.83
2023-05-14T05:31:31.514Z,13.53
2023-05-14T05:36:54.052Z,14.99
2023-05-14T05:39:20.584Z,15.64
2023-05-14T05:44:59.145Z,16.57
2023-05-14T05:47:26.557Z,16.83
2023-05-14T05:49:53.360Z,16.97
2023-05-14T05:52:20.980Z,17.15
2023-05-14T05:54:47.529Z,16.83
2023-05-14T05:57:14.038Z,16.93
2023-05-14T05:59:40.845Z,17.19
2023-05-14T06:02:08.127Z,17.17
2023-05-14T06:04:34.775Z,17.53
2023-05-14T06:07:01.329Z,17.74
2023-05-14T06:09:28.201Z,17.72
2023-05-14T06:11:55.086Z,17.70
2023-05-14T06:14:21.631Z,17.97
2023-05-14T06:16:48.780Z,17.97
2023-05-14T06:19:15.445Z,18.05
2023-05-14T06:21:43.834Z,16.81
2023-05-14T06:24:11.152Z,16.99
2023-05-14T06:26:37.954Z,15.69
2023-05-14T06:29:04.703Z,15.08
2023-05-14T06:31:33.470Z,15.29
2023-05-14T06:34:00.290Z,15.18
2023-05-14T06:36:26.744Z,15.04
2023-05-14T06:42:03.877Z,14.70
2023-05-14T06:44:31.211Z,15.40
2023-05-14T06:46:57.770Z,14.90
2023-05-14T06:49:25.328Z,15.25
2023-05-14T06:51:51.815Z,15.80
2023-05-14T06:54:18.583Z,16.34
2023-05-14T06:56:46.522Z,16.83
2023-05-14T06:59:14.090Z,16.08
2023-05-14T07:01:40.614Z,15.44
2023-05-14T07:04:07.690Z,15.95
2023-05-14T07:06:34.393Z,15.43
2023-05-14T07:09:01.247Z,16.15
2023-05-14T07:11:27.753Z,16.93
2023-05-14T07:13:56.687Z,17.20
2023-05-14T07:16:23.535Z,17.31
2023-05-14T07:18:50.958Z,17.62
2023-05-14T07:21:17.465Z,17.91
2023-05-14T07:23:44.274Z,18.16
2023-05-14T07:26:10.807Z,18.00
2023-05-14T07:28:37.457Z,17.78
2023-05-14T07:31:04.043Z,18.11
2023-05-14T07:33:32.385Z,18.33
2023-05-14T07:35:59.208Z,16.96
2023-05-14T07:38:25.781Z,16.71
2023-05-14T07:40:54.678Z,17.56
2023-05-14T07:43:21.231Z,17.59
2023-05-14T07:45:47.930Z,18.26
2023-05-14T07:48:14.890Z,19.18
2023-05-14T07:50:41.857Z,19.20
2023-05-14T07:53:08.390Z,19.47
2023-05-14T07:55:37.737Z,19.63
2023-05-14T07:58:04.274Z,19.37
2023-05-14T08:00:31.554Z,19.36
2023-05-14T08:02:58.723Z,19.56
2023-05-14T08:05:27.509Z,19.41
2023-05-14T08:07:54.502Z,19.98
2023-05-14T08:10:21.537Z,19.85
2023-05-14T08:12:48.200Z,20.52
2023-05-14T08:15:16.358Z,19.76
2023-05-14T08:17:42.825Z,19.00
2023-05-14T08:20:09.347Z,18.71
2023-05-14T08:22:36.409Z,17.32
2023-05-14T08:25:03.062Z,17.52
2023-05-14T08:27:29.854Z,17.62
2023-05-14T08:29:56.351Z,17.96
2023-05-14T08:32:24.047Z,17.78
2023-05-14T08:34:53.223Z,17.86
2023-05-14T08:37:19.957Z,18.41
2023-05-14T08:39:46.767Z,18.23
2023-05-14T08:42:13.505Z,17.63
2023-05-14T08:44:40.109Z,18.62
2023-05-14T08:47:06.578Z,19.53
2023-05-14T08:49:33.290Z,19.65
2023-05-14T08:52:00.261Z,20.07
2023-05-14T08:54:27.282Z,20.46
2023-05-14T08:56:53.853Z,20.99
2023-05-14T08:59:22.749Z,21.30
2023-05-14T09:01:49.626Z,21.39
2023-05-14T09:04:16.203Z,21.24
2023-05-14T09:06:42.905Z,20.46
2023-05-14T09:09:09.372Z,20.87
2023-05-14T09:11:35.942Z,19.83
2023-05-14T09:14:02.585Z,20.08
2023-05-14T09:16:29.142Z,20.58
2023-05-14T09:18:57.094Z,20.82
2023-05-14T09:21:25.836Z,21.07
2023-05-14T09:23:52.748Z,21.73
2023-05-14T09:26:19.317Z,21.18
2023-05-14T09:28:45.945Z,20.30
2023-05-14T09:31:12.812Z,20.58
2023-05-14T09:33:39.339Z,19.56
2023-05-14T09:36:06.105Z,19.11
2023-05-14T09:38:32.619Z,20.37
2023-05-14T09:41:01.198Z,21.20
2023-05-14T09:43:30.184Z,21.47
2023-05-14T09:45:59.892Z,20.87
2023-05-14T09:50:57.037Z,20.97
2023-05-14T09:53:24.691Z,21.17
2023-05-14T09:55:53.034Z,20.84
2023-05-14T09:58:20.300Z,21.12
2023-05-14T10:00:47.101Z,20.79
2023-05-14T10:03:15.278Z,20.91
2023-05-14T10:05:43.160Z,21.00
2023-05-14T10:08:12.059Z,21.03
2023-05-14T10:10:38.829Z,21.33
2023-05-14T10:13:06.203Z,21.18
2023-05-14T10:15:32.761Z,21.22
2023-05-14T10:17:59.835Z,21.35
2023-05-14T10:20:26.740Z,21.46
2023-05-14T10:22:56.463Z,21.27
2023-05-14T10:25:23.333Z,21.00
2023-05-14T10:27:53.189Z,20.79
2023-05-14T10:30:20.034Z,20.82
2023-05-14T10:32:54.121Z,20.87
2023-05-14T10:35:21.050Z,20.84
2023-05-14T10:37:54.880Z,20.58
2023-05-14T10:40:22.576Z,21.05
2023-05-14T10:42:56.319Z,21.22
2023-05-14T10:45:23.359Z,21.58
2023-05-14T10:47:50.308Z,21.16
2023-05-14T10:50:16.891Z,21.48
2023-05-14T10:52:43.694Z,21.81
2023-05-14T10:55:11.592Z,21.96
2023-05-14T10:57:45.627Z,22.13
2023-05-14T11:00:15.400Z,20.97
2023-05-14T11:09:12.663Z,21.33
2023-05-14T11:11:39.703Z,21.25
2023-05-14T11:14:08.423Z,21.57
2023-05-14T11:19:21.172Z,21.34
2023-05-14T11:21:49.618Z,21.69
2023-05-14T11:24:16.260Z,21.88
2023-05-14T11:26:42.798Z,21.79
2023-05-14T11:29:09.817Z,21.60
2023-05-14T11:31:36.618Z,21.71
2023-05-14T11:34:03.369Z,20.64
2023-05-14T11:36:30.971Z,19.95
2023-05-14T11:38:57.844Z,20.22
2023-05-14T11:41:24.454Z,20.40
2023-05-14T11:43:50.991Z,19.47
2023-05-14T11:46:18.679Z,20.08
2023-05-14T11:48:45.458Z,20.29
2023-05-14T11:51:12.283Z,20.95
2023-05-14T11:53:39.092Z,21.06
2023-05-14T11:56:07.153Z,21.21
2023-05-14T11:58:35.862Z,21.11
2023-05-14T12:01:02.623Z,20.71
2023-05-14T12:03:29.416Z,19.87
2023-05-14T12:05:56.505Z,18.69
2023-05-14T12:08:24.027Z,19.03
2023-05-14T12:10:50.733Z,18.85
2023-05-14T12:13:17.638Z,19.56
2023-05-14T12:15:44.321Z,20.82
2023-05-14T12:18:23.393Z,21.19
2023-05-14T12:20:50.642Z,21.40
2023-05-14T12:23:17.535Z,20.05
2023-05-14T12:25:44.313Z,19.18
2023-05-14T12:28:10.963Z,19.08
2023-05-14T12:30:37.519Z,19.44
2023-05-14T12:33:04.917Z,19.20
2023-05-14T12:35:33.749Z,17.50
2023-05-14T12:38:00.306Z,16.73
2023-05-14T12:40:27.098Z,16.82
2023-05-14T12:42:56.587Z,17.52
2023-05-14T12:45:27.878Z,17.80
2023-05-14T12:47:54.617Z,19.18
2023-05-14T12:50:21.730Z,18.26
2023-05-14T12:52:48.303Z,18.00
2023-05-14T12:55:14.840Z,18.33
2023-05-14T12:57:45.075Z,19.66
2023-05-14T13:00:21.231Z,19.33
2023-05-14T13:02:47.820Z,19.04
2023-05-14T13:05:14.463Z,20.00
2023-05-14T13:07:41.208Z,20.62
2023-05-14T13:10:07.920Z,20.99
2023-05-14T13:12:34.450Z,20.93
2023-05-14T13:15:01.345Z,19.04
2023-05-14T13:17:27.993Z,19.36
2023-05-14T13:19:57.208Z,20.05
2023-05-14T13:22:23.978Z,21.14
2023-05-14T13:24:50.596Z,20.72
2023-05-14T13:27:20.643Z,21.43
2023-05-14T13:29:48.092Z,21.75
2023-05-14T13:32:15.367Z,22.35
2023-05-14T13:34:41.939Z,22.01
2023-05-14T13:37:08.959Z,22.30
2023-05-14T13:39:35.506Z,22.30
2023-05-14T13:42:09.688Z,22.28
2023-05-14T13:45:09.933Z,21.94
2023-05-14T13:47:36.654Z,21.64
2023-05-14T13:50:03.290Z,21.69
2023-05-14T13:52:30.220Z,22.15
2023-05-14T13:54:57.037Z,21.94
2023-05-14T13:57:24.178Z,22.15
2023-05-14T13:59:51.010Z,22.51
2023-05-14T14:02:18.417Z,22.63
2023-05-14T14:04:45.884Z,22.54
2023-05-14T14:07:12.713Z,22.79
2023-05-14T14:09:39.606Z,23.11
2023-05-14T14:12:06.586Z,22.60
2023-05-14T14:14:33.162Z,22.66
2023-05-14T14:17:00.111Z,22.48
2023-05-14T14:19:27.663Z,22.25
2023-05-14T14:21:54.311Z,22.48
2023-05-14T14:24:22.152Z,22.37
2023-05-14T14:26:49.489Z,23.03
2023-05-14T14:29:16.131Z,23.08
2023-05-14T14:31:42.688Z,23.10
2023-05-14T14:34:09.206Z,22.39
2023-05-14T14:36:38.203Z,21.74
2023-05-14T14:39:07.195Z,22.37
2023-05-14T14:41:33.993Z,22.32
2023-05-14T14:44:00.635Z,22.81
2023-05-14T14:46:28.999Z,23.26
2023-05-14T14:51:47.671Z,21.31
2023-05-14T14:54:14.439Z,21.55
2023-05-14T14:56:41.014Z,21.40
2023-05-14T14:59:07.596Z,21.04
2023-05-14T15:01:34.910Z,20.14
2023-05-14T15:04:02.224Z,19.91
2023-05-14T15:06:29.049Z,20.44
2023-05-14T15:08:55.867Z,21.31
2023-05-14T15:11:22.526Z,20.89
2023-05-14T15:13:51.806Z,20.70
2023-05-14T15:16:18.708Z,20.39
2023-05-14T15:18:45.578Z,21.28
2023-05-14T15:21:12.316Z,20.88
2023-05-14T15:23:39.093Z,20.68
2023-05-14T15:26:06.360Z,20.06
2023-05-14T15:28:34.066Z,20.62
2023-05-14T15:31:00.713Z,20.38
2023-05-14T15:33:28.059Z,20.36
2023-05-14T15:35:55.457Z,21.19
2023-05-14T15:38:22.035Z,21.42
2023-05-14T15:40:48.637Z,20.50
2023-05-14T15:43:15.172Z,20.89
2023-05-14T15:45:41.801Z,20.04
2023-05-14T15:48:08.508Z,19.35
2023-05-14T15:50:35.106Z,18.93
2023-05-14T15:55:54.707Z,19.19
2023-05-14T16:25:03.393Z,21.28
2023-05-14T16:27:30.602Z,21.29
2023-05-14T16:29:59.485Z,21.36
2023-05-14T16:32:26.446Z,21.49
2023-05-14T16:34:52.998Z,21.36
2023-05-14T16:37:19.657Z,21.61
2023-05-14T16:39:46.186Z,21.58
2023-05-14T16:42:13.699Z,20.78
2023-05-14T16:44:40.332Z,18.66
2023-05-14T16:47:06.919Z,17.25
2023-05-14T16:49:33.522Z,17.68
2023-05-14T16:52:00.148Z,17.78
2023-05-14T16:54:26.766Z,18.84
2023-05-14T16:56:56.185Z,17.51
2023-05-14T16:59:25.112Z,16.98
2023-05-14T17:01:55.722Z,16.35
2023-05-14T17:04:22.768Z,15.84
2023-05-14T17:06:49.371Z,15.82
2023-05-14T17:09:16.185Z,16.32
2023-05-14T17:11:43.047Z,16.81
2023-05-14T17:14:09.770Z,17.33
2023-05-14T17:16:36.685Z,16.65
2023-05-14T17:19:03.469Z,16.42
2023-05-14T17:21:30.410Z,15.92
2023-05-14T17:23:57.269Z,15.93
2023-05-14T17:26:24.198Z,16.25
2023-05-14T17:28:52.669Z,15.89
2023-05-14T17:33:49.618Z,15.71
2023-05-14T17:36:17.054Z,15.80
2023-05-14T17:38:45.486Z,15.91
2023-05-14T17:41:12.167Z,15.76
2023-05-14T17:43:38.909Z,15.62
2023-05-14T17:46:07.864Z,15.74
2023-05-14T17:48:38.458Z,15.62
2023-05-14T17:51:07.516Z,16.03
2023-05-14T17:53:34.410Z,16.10
2023-05-14T17:56:03.985Z,16.10
2023-05-14T18:01:02.816Z,15.75
2023-05-14T18:03:29.707Z,15.85
2023-05-14T18:05:56.279Z,15.89
2023-05-14T18:08:28.033Z,16.21
2023-05-14T18:10:54.760Z,15.83
2023-05-14T18:13:21.675Z,15.72
2023-05-14T18:15:48.437Z,15.69
2023-05-14T18:21:02.373Z,15.47
2023-05-14T18:23:29.307Z,15.79
2023-05-14T18:25:58.341Z,15.85
2023-05-14T18:31:15.854Z,15.58
2023-05-14T18:33:44.425Z,15.55
2023-05-14T18:36:11.960Z,15.44
2023-05-14T18:38:39.115Z,15.46
2023-05-14T18:41:06.008Z,15.10
2023-05-14T18:43:33.035Z,14.94
2023-05-14T18:46:04.604Z,15.07
2023-05-14T18:51:31.225Z,13.84
2023-05-14T18:53:59.651Z,13.63
2023-05-14T18:56:26.512Z,13.53
2023-05-14T18:58:54.089Z,13.65
2023-05-14T19:01:21.542Z,13.36
2023-05-14T19:03:53.363Z,13.16
2023-05-14T19:06:20.130Z,13.15
2023-05-14T19:08:47.051Z,12.91
2023-05-14T19:14:10.161Z,12.18
2023-05-14T19:16:36.905Z,12.10
2023-05-14T19:19:05.810Z,11.82
2023-05-14T19:21:32.742Z,11.67
2023-05-14T19:23:59.420Z,11.50
2023-05-14T19:26:26.523Z,11.28
2023-05-14T19:28:54.557Z,11.18
2023-05-14T19:31:21.615Z,10.97
2023-05-14T19:33:49.656Z,10.87
2023-05-14T19:36:18.710Z,10.91
2023-05-14T19:38:45.651Z,10.91
2023-05-14T19:41:14.092Z,11.03
2023-05-14T19:43:41.308Z,11.09
2023-05-14T19:46:08.633Z,11.09
2023-05-14T19:51:21.394Z,11.36
2023-05-14T19:53:48.455Z,11.34
2023-05-14T19:56:15.253Z,11.46
2023-05-14T19:58:42.154Z,11.53
2023-05-14T20:01:11.094Z,11.81
2023-05-14T20:03:40.959Z,11.85
2023-05-14T20:06:11.793Z,11.94
2023-05-14T20:08:41.244Z,11.94
2023-05-14T20:11:08.514Z,11.93
2023-05-14T20:13:36.495Z,12.13
2023-05-14T20:16:03.275Z,12.32
2023-05-14T20:18:29.965Z,12.29
2023-05-14T20:20:56.705Z,12.63
2023-05-14T20:23:24.313Z,12.77
2023-05-14T20:25:54.849Z,13.01
2023-05-14T20:28:22.300Z,12.81
2023-05-14T20:30:49.012Z,13.78
2023-05-14T20:33:16.817Z,13.50
2023-05-14T20:35:46.493Z,14.21
2023-05-14T20:38:15.181Z,14.38
2023-05-14T20:40:44.274Z,14.26
2023-05-14T20:43:11.230Z,14.48
2023-05-14T20:45:38.878Z,14.96
2023-05-14T20:48:05.626Z,15.15
2023-05-14T20:50:32.225Z,15.31
2023-05-14T20:53:00.106Z,15.42
2023-05-14T20:55:27.609Z,15.31
2023-05-14T20:57:55.187Z,15.66
2023-05-14T21:00:22.070Z,14.29
2023-05-14T21:02:50.871Z,14.49
2023-05-14T21:05:17.571Z,14.92
2023-05-14T21:07:45.807Z,15.32
2023-05-14T21:10:12.392Z,15.65
2023-05-14T21:12:39.373Z,15.52
2023-05-14T21:15:06.526Z,15.19
2023-05-14T21:17:33.327Z,15.63
2023-05-14T21:19:59.950Z,15.61
2023-05-14T21:22:26.622Z,15.58
2023-05-14T21:24:55.589Z,15.80
2023-05-14T21:27:24.216Z,15.45
2023-05-14T21:29:51.009Z,15.75
2023-05-14T21:32:17.489Z,15.11
2023-05-14T21:34:44.353Z,14.56
2023-05-14T21:37:11.121Z,14.78
2023-05-14T21:39:38.772Z,14.53
2023-05-14T21:42:07.939Z,14.24
2023-05-14T21:44:34.851Z,14.24
2023-05-14T21:47:01.393Z,14.69
2023-05-14T21:49:28.261Z,14.38
2023-05-14T21:51:57.018Z,14.44
2023-05-14T21:54:23.815Z,13.72
2023-05-14T21:56:51.378Z,13.23
2023-05-14T21:59:18.212Z,13.48
2023-05-14T22:04:14.353Z,13.43
2023-05-14T22:06:41.129Z,14.04
2023-05-14T22:09:07.698Z,13.29
2023-05-14T22:11:43.946Z,13.17
2023-05-14T22:14:27.010Z,12.75
2023-05-14T22:16:53.563Z,12.65
2023-05-14T22:19:20.975Z,13.02
2023-05-14T22:21:47.479Z,14.02
2023-05-14T22:24:14.332Z,14.69
2023-05-14T22:26:42.910Z,15.21
2023-05-14T22:29:10.816Z,15.74
2023-05-14T22:31:37.578Z,15.80
2023-05-14T22:34:05.104Z,15.05
2023-05-14T22:36:31.734Z,14.95
2023-05-14T22:38:58.594Z,15.57
2023-05-14T22:41:26.173Z,15.88
2023-05-14T22:43:53.572Z,16.37
2023-05-14T22:46:20.188Z,16.52
2023-05-14T22:48:46.773Z,16.61
2023-05-14T22:51:13.279Z,16.28
2023-05-14T22:53:41.037Z,16.05
2023-05-14T22:56:07.547Z,15.95
2023-05-14T22:58:35.068Z,15.46
2023-05-14T23:01:02.351Z,15.57
2023-05-14T23:03:29.160Z,16.17
2023-05-14T23:05:55.667Z,16.38
2023-05-14T23:08:24.520Z,16.48
2023-05-14T23:10:52.908Z,16.19
2023-05-14T23:13:19.383Z,16.44
2023-05-14T23:15:45.901Z,16.75
2023-05-14T23:18:13.127Z,16.87
2023-05-14T23:20:39.935Z,17.09
2023-05-14T23:23:06.778Z,16.48
2023-05-14T23:25:33.385Z,16.93
2023-05-14T23:28:00.248Z,16.25
2023-05-14T23:30:27.011Z,15.04
2023-05-14T23:32:53.543Z,15.79
2023-05-14T23:35:20.355Z,14.75
2023-05-14T23:37:47.389Z,14.48
2023-05-14T23:40:14.075Z,15.06
2023-05-14T23:42:41.159Z,14.88
2023-05-14T23:45:08.623Z,15.51
2023-05-14T23:47:35.582Z,15.73
2023-05-14T23:50:02.114Z,15.97
2023-05-14T23:52:28.694Z,15.95
2023-05-14T23:54:55.256Z,15.47
2023-05-14T23:57:22.548Z,15.13
